createdAt,value
2022-08-03T00:02:56.000Z,1.8
2022-08-03T00:07:50.000Z,1.9
2022-08-03T00:12:48.000Z,1.8
2022-08-03T00:17:40.000Z,2
2022-08-03T00:22:35.000Z,2
2022-08-03T00:27:29.000Z,2.1
2022-08-03T00:32:23.000Z,2
2022-08-03T00:37:18.000Z,1.7
2022-08-03T00:42:12.000Z,1.9
2022-08-03T00:47:06.000Z,1.7
2022-08-03T00:52:00.000Z,1.8
2022-08-03T00:56:54.000Z,1.9
2022-08-03T01:06:42.000Z,2.1
2022-08-03T01:11:36.000Z,2.1
2022-08-03T01:16:31.000Z,2
2022-08-03T01:21:26.000Z,2
2022-08-03T01:26:21.000Z,2
2022-08-03T01:31:15.000Z,1.9
2022-08-03T01:36:09.000Z,2.2
2022-08-03T01:41:03.000Z,2
2022-08-03T01:45:58.000Z,2.4
2022-08-03T01:50:51.000Z,2
2022-08-03T01:55:46.000Z,2
2022-08-03T02:00:40.000Z,2.4
2022-08-03T02:05:34.000Z,2.2
2022-08-03T02:10:29.000Z,2.2
2022-08-03T02:15:23.000Z,2.2
2022-08-03T02:20:18.000Z,2.3
2022-08-03T02:25:12.000Z,2.3
2022-08-03T02:30:06.000Z,1.9
2022-08-03T02:35:00.000Z,2.1
2022-08-03T02:39:55.000Z,2.2
2022-08-03T02:44:49.000Z,2.3
2022-08-03T02:49:44.000Z,2.2
2022-08-03T02:54:38.000Z,2.4
2022-08-03T02:59:33.000Z,2.3
2022-08-03T03:04:27.000Z,2.3
2022-08-03T03:09:22.000Z,2.4
2022-08-03T03:14:16.000Z,2.7
2022-08-03T03:19:11.000Z,2.4
2022-08-03T03:24:06.000Z,2.3
2022-08-03T03:29:00.000Z,2.6
2022-08-03T03:33:55.000Z,2.4
2022-08-03T03:38:49.000Z,2.7
2022-08-03T03:43:43.000Z,2.6
2022-08-03T03:48:38.000Z,2.5
2022-08-03T03:53:33.000Z,2.4
2022-08-03T03:58:30.000Z,2.7
2022-08-03T04:03:21.000Z,2.9
2022-08-03T04:08:15.000Z,2.7
2022-08-03T04:13:10.000Z,2.7
2022-08-03T04:18:04.000Z,2.8
2022-08-03T04:22:59.000Z,2.7
2022-08-03T04:27:53.000Z,2.8
2022-08-03T04:32:47.000Z,2.5
2022-08-03T04:37:42.000Z,2.5
2022-08-03T04:42:36.000Z,2.6
2022-08-03T04:47:31.000Z,2.7
2022-08-03T04:52:29.000Z,2.8
2022-08-03T04:57:20.000Z,2.6
2022-08-03T05:02:13.000Z,2.7
2022-08-03T05:07:05.000Z,2.6
2022-08-03T05:11:58.000Z,2.4
2022-08-03T05:16:53.000Z,2.7
2022-08-03T05:21:47.000Z,2.5
2022-08-03T05:26:42.000Z,2.4
2022-08-03T05:31:36.000Z,2.6
2022-08-03T05:36:31.000Z,2.3
2022-08-03T05:41:26.000Z,2.7
2022-08-03T05:46:21.000Z,2.4
2022-08-03T05:51:15.000Z,2.4
2022-08-03T05:56:09.000Z,2.4
2022-08-03T06:01:03.000Z,2.4
2022-08-03T06:05:59.000Z,2.3
2022-08-03T06:10:53.000Z,2.4
2022-08-03T06:15:47.000Z,2
2022-08-03T06:20:41.000Z,2.4
2022-08-03T06:25:36.000Z,2.2
2022-08-03T06:30:31.000Z,2.3
2022-08-03T06:35:25.000Z,2.3
2022-08-03T06:40:20.000Z,2.3
2022-08-03T06:45:15.000Z,2.6
2022-08-03T06:50:08.000Z,2.3
2022-08-03T06:55:03.000Z,2.5
2022-08-03T06:59:57.000Z,2.1
2022-08-03T07:04:51.000Z,2.2
2022-08-03T07:09:46.000Z,2.2
2022-08-03T07:14:40.000Z,2
2022-08-03T07:19:35.000Z,1.9
2022-08-03T07:24:30.000Z,2.1
2022-08-03T07:29:24.000Z,2.1
2022-08-03T07:34:18.000Z,2.3
2022-08-03T07:39:12.000Z,2
2022-08-03T07:44:07.000Z,2.1
2022-08-03T07:49:01.000Z,2
2022-08-03T07:53:57.000Z,2
2022-08-03T07:58:51.000Z,2.1
2022-08-03T08:03:46.000Z,2.3
2022-08-03T08:08:41.000Z,2.1
2022-08-03T08:13:35.000Z,1.9
2022-08-03T08:18:30.000Z,1.7
2022-08-03T08:23:25.000Z,1.7
2022-08-03T08:28:19.000Z,1.9
2022-08-03T08:33:16.000Z,2.2
2022-08-03T08:38:09.000Z,1.5
2022-08-03T08:43:04.000Z,2
2022-08-03T08:47:59.000Z,1.6
2022-08-03T08:52:53.000Z,1.9
2022-08-03T08:57:48.000Z,2.1
2022-08-03T09:02:42.000Z,1.5
2022-08-03T09:07:38.000Z,2.2
2022-08-03T09:12:33.000Z,1.5
2022-08-03T09:17:28.000Z,1.5
2022-08-03T09:22:23.000Z,1.5
2022-08-03T09:27:17.000Z,1.8
2022-08-03T09:32:12.000Z,1.7
2022-08-03T09:37:07.000Z,1.9
2022-08-03T09:42:02.000Z,1.8
2022-08-03T09:46:57.000Z,1.7
2022-08-03T09:51:51.000Z,1.6
2022-08-03T09:56:47.000Z,1.6
2022-08-03T10:01:44.000Z,1.7
2022-08-03T10:06:39.000Z,1.7
2022-08-03T10:11:36.000Z,1.7
2022-08-03T10:16:32.000Z,1.8
2022-08-03T10:21:28.000Z,2
2022-08-03T10:26:23.000Z,2
2022-08-03T10:31:19.000Z,2
2022-08-03T10:36:14.000Z,1.9
2022-08-03T10:41:09.000Z,2
2022-08-03T10:46:04.000Z,1.8
2022-08-03T10:50:59.000Z,2.1
2022-08-03T10:55:53.000Z,2
2022-08-03T11:00:49.000Z,1.9
2022-08-03T11:05:43.000Z,2.1
2022-08-03T11:10:38.000Z,1.9
2022-08-03T11:15:32.000Z,1.9
2022-08-03T11:20:27.000Z,1.8
2022-08-03T11:25:22.000Z,2.1
2022-08-03T11:30:17.000Z,1.9
2022-08-03T11:35:12.000Z,2.4
2022-08-03T11:40:08.000Z,2.2
2022-08-03T11:45:03.000Z,2.3
2022-08-03T11:50:04.000Z,2.3
2022-08-03T11:54:52.000Z,2.2
2022-08-03T11:59:48.000Z,2.3
2022-08-03T12:04:43.000Z,2.6
2022-08-03T12:09:39.000Z,2.5
2022-08-03T12:14:34.000Z,2.4
2022-08-03T12:19:28.000Z,2.5
2022-08-03T12:24:23.000Z,2.4
2022-08-03T12:29:18.000Z,2.4
2022-08-03T12:34:13.000Z,2.4
2022-08-03T12:39:08.000Z,3
2022-08-03T12:44:04.000Z,3.2
2022-08-03T12:48:58.000Z,3.2
2022-08-03T12:53:52.000Z,3.1
2022-08-03T12:58:48.000Z,3.7
2022-08-03T13:03:43.000Z,4
2022-08-03T13:08:38.000Z,3.7
2022-08-03T13:13:32.000Z,3
2022-08-03T13:18:27.000Z,3
2022-08-03T13:23:22.000Z,3.1
2022-08-03T13:28:16.000Z,3
2022-08-03T13:33:11.000Z,3.3
2022-08-03T13:38:06.000Z,3.7
2022-08-03T13:43:01.000Z,3.9
2022-08-03T13:47:56.000Z,4.3
2022-08-03T13:52:59.000Z,3.8
2022-08-03T13:57:45.000Z,3.7
2022-08-03T14:02:39.000Z,4.1
2022-08-03T14:07:34.000Z,4.6
2022-08-03T14:12:29.000Z,4.7
2022-08-03T14:17:24.000Z,5
2022-08-03T14:22:18.000Z,5
2022-08-03T14:27:13.000Z,4.2
2022-08-03T14:32:06.000Z,3.6
2022-08-03T14:37:00.000Z,2.8
2022-08-03T14:41:53.000Z,3
2022-08-03T14:46:48.000Z,3.1
2022-08-03T14:51:43.000Z,3.9
2022-08-03T14:56:37.000Z,4.7
2022-08-03T15:01:32.000Z,4.6
2022-08-03T15:06:27.000Z,4.3
2022-08-03T15:11:21.000Z,3.8
2022-08-03T15:16:15.000Z,4.5
2022-08-03T15:21:10.000Z,4.3
2022-08-03T15:26:05.000Z,4.4
2022-08-03T15:31:00.000Z,4.7
2022-08-03T15:35:53.000Z,5.1
2022-08-03T15:40:48.000Z,5.2
2022-08-03T15:45:43.000Z,4.7
2022-08-03T15:50:37.000Z,3.7
2022-08-03T15:55:31.000Z,3.4
2022-08-03T16:00:25.000Z,3
2022-08-03T16:05:20.000Z,3.1
2022-08-03T16:10:14.000Z,3
2022-08-03T16:15:09.000Z,3
2022-08-03T16:20:03.000Z,3.1
2022-08-03T16:24:58.000Z,3
2022-08-03T16:29:52.000Z,3.2
2022-08-03T16:34:47.000Z,3.3
2022-08-03T16:39:41.000Z,3.1
2022-08-03T16:44:36.000Z,2.7
2022-08-03T16:49:31.000Z,2.8
2022-08-03T16:54:26.000Z,3.1
2022-08-03T16:59:21.000Z,2.5
2022-08-03T17:04:15.000Z,2.7
2022-08-03T17:09:09.000Z,2.6
2022-08-03T17:14:04.000Z,2.5
2022-08-03T17:18:58.000Z,2.5
2022-08-03T17:23:52.000Z,2.2
2022-08-03T17:28:47.000Z,2.4
2022-08-03T17:33:41.000Z,2.1
2022-08-03T17:38:36.000Z,1.8
2022-08-03T17:43:31.000Z,1.8
2022-08-03T17:48:26.000Z,1.9
2022-08-03T17:53:20.000Z,1.7
2022-08-03T17:58:14.000Z,1.7
2022-08-03T18:03:11.000Z,2
2022-08-03T18:08:03.000Z,2.1
2022-08-03T18:12:57.000Z,1.9
2022-08-03T18:17:52.000Z,1.6
2022-08-03T18:22:46.000Z,1.7
2022-08-03T18:27:41.000Z,1.7
2022-08-03T18:32:34.000Z,1.8
2022-08-03T18:37:29.000Z,1.7
2022-08-03T18:42:23.000Z,1.6
2022-08-03T18:47:17.000Z,1.7
2022-08-03T18:52:12.000Z,2
2022-08-03T18:57:06.000Z,2
2022-08-03T19:02:01.000Z,1.8
2022-08-03T19:06:55.000Z,1.9
2022-08-03T19:11:49.000Z,2
2022-08-03T19:16:44.000Z,7.3
2022-08-03T19:21:38.000Z,2.2
2022-08-03T19:26:33.000Z,2.5
2022-08-03T19:31:28.000Z,5.6
2022-08-03T19:36:22.000Z,2
2022-08-03T19:41:16.000Z,4.5
2022-08-03T19:46:11.000Z,2.1
2022-08-03T19:51:05.000Z,1.8
2022-08-03T19:56:01.000Z,2.1
2022-08-03T20:00:53.000Z,2
2022-08-03T20:05:56.000Z,2.3
2022-08-03T20:10:42.000Z,2.2
2022-08-03T20:15:37.000Z,2
2022-08-03T20:20:31.000Z,1.9
2022-08-03T20:25:26.000Z,2.2
2022-08-03T20:30:21.000Z,2.4
2022-08-03T20:35:15.000Z,2
2022-08-03T20:40:10.000Z,1.9
2022-08-03T20:45:04.000Z,2.1
2022-08-03T20:49:59.000Z,2.2
2022-08-03T20:54:52.000Z,1.9
2022-08-03T20:59:46.000Z,1.9
2022-08-03T21:04:41.000Z,2.2
2022-08-03T21:09:33.000Z,2.1
2022-08-03T21:14:26.000Z,2.1
2022-08-03T21:19:19.000Z,2.1
2022-08-03T21:24:14.000Z,2.1
2022-08-03T21:29:08.000Z,2.1
2022-08-03T21:34:03.000Z,2.5
2022-08-03T21:38:57.000Z,2.1
2022-08-03T21:43:51.000Z,2
2022-08-03T21:48:46.000Z,2.1
2022-08-03T21:53:40.000Z,1.9
2022-08-03T21:58:35.000Z,1.8
2022-08-03T22:03:29.000Z,2.1
2022-08-03T22:08:24.000Z,2.3
2022-08-03T22:13:19.000Z,2.2
2022-08-03T22:18:13.000Z,2
2022-08-03T22:23:08.000Z,2.1
2022-08-03T22:28:02.000Z,2.2
2022-08-03T22:32:57.000Z,2.2
2022-08-03T22:37:52.000Z,2
2022-08-03T22:42:46.000Z,2.1
2022-08-03T22:47:40.000Z,2.1
2022-08-03T22:52:33.000Z,2.2
2022-08-03T22:57:28.000Z,2.1
2022-08-03T23:02:23.000Z,2.3
2022-08-03T23:07:18.000Z,2.2
2022-08-03T23:12:12.000Z,1.9
2022-08-03T23:17:06.000Z,2.3
2022-08-03T23:22:01.000Z,2.2
2022-08-03T23:26:55.000Z,2
2022-08-03T23:31:49.000Z,2.1
2022-08-03T23:36:44.000Z,2
2022-08-03T23:41:39.000Z,2.2
2022-08-03T23:46:33.000Z,2.2
2022-08-03T23:51:27.000Z,2.1
2022-08-03T23:56:22.000Z,1.9
